Fayville, Illinois
Current Conditions -  °F | °C
As of 7:53 AM on Friday 28 Nov 2014 (Local Time) from KCGI Reporting Station
Clear Clear  
Wind Chill: 20°   Ceiling: Unl
Heat Index: 30°   Visibility: 7mi
Dew Point: 26°   Wind: 13mph
Humidity: 85%   Direction: 160°SSE
Pressure: 30.35"   Gusts: NA
Location:  37.1947°N, 89.3961°W
Report Text: KCGI 281353Z 16011KT 7SM CLR M01/M03 A3035 RMK AO2 SLP281 T10111033
Loading
Personal Weather Stations






























Interactive Weather Map New forecast layout! Learn more

10-Day Weather Forecast

Advertisements
Track Severe Weather on mobile